Aérodrome :
LOGIN :

S'inscrire | Disclaimer

   EN    FR    IT 

 










Légende :    VFR   VFR Marginal   IFR   IFR Intensif   IFR Très Intensif
Visi : 
Plafond : 
>= 8 km
>= 3000ft
5 à 8 km
1000 à 3000 ft
1500m à 5 km
500 à 1000 ft
800 à 1500m
200 à 500 ft
< 800m
< 200 ft
Symboles :   Orages  Brouillard  Fortes neiges  Fortes précipitations  Vent > 20 kt
SIGMETs :   Divers  Orages  Givrage  Turbulence  Onde Orograph.  Cendres Volcan.







- Altitude de l'aérodrome : 1674 ft
- Code IATA : BRN


LSZB - Bern Belp

DERNIER METAR :
  • 230820Z VRB03KT 9999 SCT120 SCT200 28/19 Q1019 NOSIG

METARs EXPIRÉS :
  • 230750Z VRB02KT 9999 SCT120 28/18 Q1019 NOSIG
  • 230720Z AUTO VRB01KT 9999 FEW120 OVC150 28/18 Q1019
  • 230650Z VRB03KT 9999 SCT120 26/19 Q1019 NOSIG
  • 230620Z 00000KT 9999 FEW130 24/17 Q1019 NOSIG
  • 230550Z VRB03KT 9999 FEW130 23/18 Q1019 NOSIG

TAF TAF LSZB
Valide du 23 à 06h jusqu'au 23 à 15h UTC


230525Z 2306/2315 VRB03KT 9999 SCT120
PROB40 2312/2315 29010KT SCT080TCU
ATIS : +41 22 417 40 76
Pas de NOTAMs connus pour ce terrain.



MET'MAP, la Météo Aéronautique d'un coup d'oeil ! - Copyright ORBIFLY Décembre 2007 - Disclaimer

ORBIFLY MET'MAP TEAM :

Programmation & Développement : Alexandra Zaïnal
Conception & Développement : Baudouin d'Aumeries
Co-Programmation & Développement : Marc-Olivier Méhu
Soutien technique & logistique : Manuel Goepfert

Contact : metmap@orbifly.com




SOURCES & CREDITS :

   NOAA